Sacramento, Pennsylvania
Current Conditions -  °F | °C
As of 9:58 AM on Thursday 30 Oct 2014 (Local Time) from KMUI Reporting Station
Few Clouds Few Clouds  
Wind Chill: 52°   Ceiling: Unl
Heat Index: 52°   Visibility: 10mi
Dew Point: 32°   Wind: 3mph
Humidity: 47%   Direction: NA
Pressure: 30.05"   Gusts: NA
Location:  40.63°N, 76.59°W
Report Text: KMUI 301358Z VRB03KT 10SM FEW040 11/00 A3005 RMK AO2A SLPNO WND DATA ESTMD ALSTG ESTMD $
Loading
Personal Weather Stations






























Interactive Weather Map
Tropical Storm Tracking
New forecast layout! Learn more

10-Day Weather Forecast

Advertisements
Track Severe Weather on mobile